Time;durP1;ratioP1;P1;durP2;ratioP2;P2;SDS_P1;SDS_P2;PMS_P1;PMS_P2;Temp;Humidity;BMP_temperature;BMP_pressure;BME280_temperature;BME280_humidity;BME280_pressure;Samples;Min_cycle;Max_cycle;Signal;HPM_P1;HPM_P2
2022/10/17 00:02:00;;;;;;;6.53;4.88;;;14.00;99.90;;;;;;5044204;28;20131;-82
2022/10/17 00:04:26;;;;;;;10.05;5.30;;;14.00;99.90;;;;;;5068440;28;20087;-83
2022/10/17 00:06:52;;;;;;;10.15;4.90;;;14.10;99.90;;;;;;5064617;28;20044;-83
2022/10/17 00:09:17;;;;;;;7.95;4.78;;;14.10;99.90;;;;;;5067558;28;20063;-84
2022/10/17 00:11:43;;;;;;;8.70;5.03;;;14.10;99.90;;;;;;5062182;28;20284;-83
2022/10/17 00:14:09;;;;;;;7.65;5.30;;;14.10;99.90;;;;;;5048237;28;20045;-83
2022/10/17 00:16:36;;;;;;;8.85;5.13;;;14.10;99.90;;;;;;5063786;28;20545;-83
2022/10/17 00:19:03;;;;;;;9.10;4.82;;;14.10;99.90;;;;;;5048988;28;20066;-83
2022/10/17 00:21:29;;;;;;;15.38;5.68;;;14.10;99.90;;;;;;5067209;28;20049;-84
2022/10/17 00:23:55;;;;;;;10.48;5.32;;;14.10;99.90;;;;;;5069783;28;20128;-83
2022/10/17 00:26:21;;;;;;;8.90;5.78;;;14.10;99.90;;;;;;5067715;28;20159;-83
2022/10/17 00:28:48;;;;;;;9.50;5.70;;;14.10;99.90;;;;;;5047555;28;20076;-83
2022/10/17 00:31:15;;;;;;;12.93;6.65;;;14.10;99.90;;;;;;5062499;28;20036;-84
2022/10/17 00:33:42;;;;;;;9.52;5.65;;;14.00;99.90;;;;;;5066484;28;20086;-83
2022/10/17 00:36:15;;;;;;;9.07;6.07;;;14.00;99.90;;;;;;5048642;28;20044;-87
2022/10/17 00:38:42;;;;;;;7.97;5.88;;;14.00;99.90;;;;;;5046750;28;20044;-82
2022/10/17 00:41:08;;;;;;;;;;;14.00;99.90;;;;;;5049702;28;20127;-83
2022/10/17 00:43:55;;;;;;;11.40;6.37;;;14.00;99.90;;;;;;5063634;28;19979;-84
2022/10/17 00:46:22;;;;;;;9.05;5.72;;;14.00;99.90;;;;;;5066241;28;20048;-85
2022/10/17 00:48:51;;;;;;;9.32;5.88;;;14.00;99.90;;;;;;5065572;28;20202;-83
2022/10/17 00:51:20;;;;;;;11.30;6.43;;;14.00;99.90;;;;;;5061603;28;20140;-82
2022/10/17 00:53:47;;;;;;;8.57;6.05;;;14.00;99.90;;;;;;5064243;28;20048;-83
2022/10/17 00:56:13;;;;;;;10.10;6.20;;;14.00;99.90;;;;;;5068862;28;20040;-83
2022/10/17 00:58:39;;;;;;;7.97;6.63;;;14.00;99.90;;;;;;5063074;28;20040;-82
2022/10/17 01:01:05;;;;;;;8.95;6.85;;;14.00;99.90;;;;;;5063617;28;20040;-83
2022/10/17 01:03:30;;;;;;;7.50;6.40;;;14.00;99.90;;;;;;5061085;28;20033;-84
2022/10/17 01:05:56;;;;;;;9.07;6.70;;;14.00;99.90;;;;;;5066842;28;20593;-83
2022/10/17 01:08:22;;;;;;;9.35;6.72;;;14.00;99.90;;;;;;5060463;28;20546;-83
2022/10/17 01:11:15;;;;;;;9.30;6.93;;;14.00;99.90;;;;;;5048384;28;20080;-83
2022/10/17 01:13:52;;;;;;;12.35;7.25;;;14.00;99.90;;;;;;5064439;28;20110;-83
2022/10/17 01:16:32;;;;;;;9.18;7.50;;;14.00;99.90;;;;;;5064746;28;20124;-83
2022/10/17 01:19:11;;;;;;;11.15;7.40;;;14.00;99.90;;;;;;5064562;28;20044;-83
2022/10/17 01:21:59;;;;;;;8.68;7.35;;;13.90;99.90;;;;;;5062852;28;20049;-83
2022/10/17 01:24:30;;;;;;;;;;;13.90;99.90;;;;;;5066013;28;20044;-83
2022/10/17 01:27:24;;;;;;;10.05;7.53;;;13.80;99.90;;;;;;5065332;28;20043;-83
2022/10/17 01:30:30;;;;;;;9.63;7.60;;;13.80;99.90;;;;;;5062486;28;20148;-85
2022/10/17 01:33:04;;;;;;;10.85;7.70;;;13.80;99.90;;;;;;5046343;28;20056;-83
2022/10/17 01:35:46;;;;;;;11.73;7.43;;;13.80;99.90;;;;;;5068525;28;20089;-83
2022/10/17 01:38:18;;;;;;;10.93;7.80;;;13.80;99.90;;;;;;5062055;28;20049;-82
2022/10/17 01:41:09;;;;;;;9.30;7.32;;;13.70;99.90;;;;;;5066153;28;20041;-83
2022/10/17 01:43:53;;;;;;;9.07;7.63;;;13.70;99.90;;;;;;5053619;28;20071;-83
2022/10/17 01:46:29;;;;;;;9.00;8.02;;;13.70;99.90;;;;;;5063650;28;20105;-83
2022/10/17 01:48:58;;;;;;;8.32;7.43;;;13.70;99.90;;;;;;5066527;28;20052;-82
2022/10/17 01:51:36;;;;;;;11.32;8.27;;;13.60;99.90;;;;;;5065439;28;20491;-81
2022/10/17 01:54:18;;;;;;;10.73;8.57;;;13.70;99.90;;;;;;5066878;28;20044;-83
2022/10/17 01:56:46;;;;;;;12.27;8.00;;;13.70;99.90;;;;;;5061970;28;20040;-83
2022/10/17 01:59:16;;;;;;;10.40;8.18;;;13.60;99.90;;;;;;5068142;28;20087;-83
2022/10/17 02:01:45;;;;;;;11.77;8.10;;;13.60;99.90;;;;;;5062264;28;20039;-82
2022/10/17 02:04:11;;;;;;;10.90;8.77;;;13.60;99.90;;;;;;5062841;28;20071;-86
2022/10/17 02:06:37;;;;;;;10.25;8.00;;;13.60;99.90;;;;;;5065303;28;20099;-83
2022/10/17 02:09:21;;;;;;;9.75;8.13;;;13.60;99.90;;;;;;5067427;28;20032;-83
2022/10/17 02:12:10;;;;;;;11.95;9.25;;;13.60;99.90;;;;;;5057655;28;20055;-82
2022/10/17 02:14:53;;;;;;;9.70;8.70;;;13.60;99.90;;;;;;5056541;28;20399;-82
2022/10/17 02:17:36;;;;;;;12.10;9.35;;;13.60;99.90;;;;;;5059441;28;20364;-83
2022/10/17 02:20:17;;;;;;;10.80;9.13;;;13.60;99.90;;;;;;5040959;28;20139;-82
2022/10/17 02:22:57;;;;;;;10.90;8.93;;;13.60;99.90;;;;;;5044048;28;20131;-84
2022/10/17 02:25:54;;;;;;;10.98;8.55;;;13.60;99.90;;;;;;5064915;28;20135;-83
2022/10/17 02:28:26;;;;;;;;;;;13.60;99.90;;;;;;5064572;28;20059;-83
2022/10/17 02:31:02;;;;;;;11.18;9.15;;;13.50;99.90;;;;;;5059907;28;19928;-84
2022/10/17 02:33:38;;;;;;;10.38;9.20;;;13.60;99.90;;;;;;5059708;28;20044;-83
2022/10/17 02:36:10;;;;;;;14.10;8.80;;;13.50;99.90;;;;;;5043320;28;20158;-83
2022/10/17 02:38:37;;;;;;;11.20;8.88;;;13.50;99.90;;;;;;5047041;28;20982;-84
2022/10/17 02:41:06;;;;;;;11.35;9.65;;;13.50;99.90;;;;;;5066212;28;20528;-83
2022/10/17 02:43:33;;;;;;;12.02;10.02;;;13.50;99.90;;;;;;5063653;28;20392;-83
2022/10/17 02:45:59;;;;;;;12.13;9.27;;;13.50;99.90;;;;;;5064489;28;20043;-82
2022/10/17 02:48:58;;;;;;;11.35;10.15;;;13.60;99.90;;;;;;5032904;28;20032;-84
2022/10/17 02:51:34;;;;;;;13.07;10.20;;;13.60;99.90;;;;;;5037216;28;20059;-83
2022/10/17 02:54:17;;;;;;;10.57;9.48;;;13.60;99.90;;;;;;5066020;28;20114;-83
2022/10/17 02:57:08;;;;;;;14.15;10.15;;;13.60;99.90;;;;;;5062877;28;20041;-83
2022/10/17 02:59:35;;;;;;;12.98;10.23;;;13.60;99.90;;;;;;5064854;28;20053;-82
2022/10/17 03:02:05;;;;;;;12.23;10.88;;;13.60;99.90;;;;;;5060072;28;20076;-83
2022/10/17 03:04:31;;;;;;;11.50;10.30;;;13.60;99.90;;;;;;5056046;28;20044;-84
2022/10/17 03:06:57;;;;;;;12.20;10.90;;;13.60;99.90;;;;;;5060864;28;20487;-82
2022/10/17 03:09:23;;;;;;;12.05;10.70;;;13.60;99.90;;;;;;5061231;28;20045;-82
2022/10/17 03:11:48;;;;;;;12.75;11.40;;;13.60;99.90;;;;;;5062645;28;20055;-84
2022/10/17 03:14:14;;;;;;;14.32;11.20;;;13.60;99.90;;;;;;5069266;28;20052;-83
2022/10/17 03:16:39;;;;;;;12.85;11.55;;;13.60;99.90;;;;;;5039377;28;20052;-84
2022/10/17 03:19:06;;;;;;;12.38;10.90;;;13.60;99.90;;;;;;5064139;28;20033;-83
2022/10/17 03:21:32;;;;;;;12.02;10.93;;;13.70;99.90;;;;;;5062438;28;20553;-84
2022/10/17 03:23:58;;;;;;;13.57;11.25;;;13.60;99.90;;;;;;5064275;28;20072;-83
2022/10/17 03:26:23;;;;;;;13.93;12.10;;;13.60;99.90;;;;;;5067425;28;20077;-83
2022/10/17 03:28:49;;;;;;;14.23;12.75;;;13.60;99.90;;;;;;5064211;28;20052;-82
2022/10/17 03:31:16;;;;;;;13.32;12.13;;;13.60;99.90;;;;;;5062330;28;20044;-83
2022/10/17 03:33:42;;;;;;;12.80;11.52;;;13.70;99.90;;;;;;5059358;28;20040;-85
2022/10/17 03:36:11;;;;;;;14.20;12.75;;;13.70;99.90;;;;;;5044745;28;20056;-83
2022/10/17 03:38:37;;;;;;;13.27;11.98;;;13.70;99.90;;;;;;5059490;28;20057;-82
2022/10/17 03:41:04;;;;;;;13.38;12.07;;;13.70;99.90;;;;;;5065120;28;20048;-84
2022/10/17 03:43:30;;;;;;;14.45;12.32;;;13.70;99.90;;;;;;5043728;28;20040;-84
2022/10/17 03:45:57;;;;;;;15.23;13.73;;;13.70;99.90;;;;;;5062119;28;20480;-83
2022/10/17 03:48:24;;;;;;;15.35;12.80;;;13.70;99.90;;;;;;5064950;28;20677;-83
2022/10/17 03:50:49;;;;;;;15.18;13.73;;;13.70;99.90;;;;;;5064675;28;20127;-84
2022/10/17 03:53:15;;;;;;;14.68;13.18;;;13.70;99.90;;;;;;5058846;28;20100;-83
2022/10/17 03:55:41;;;;;;;16.13;13.75;;;13.70;99.90;;;;;;5044254;28;20040;-83
2022/10/17 03:58:06;;;;;;;16.40;14.73;;;13.70;99.90;;;;;;5064012;28;20040;-83
2022/10/17 04:00:35;;;;;;;16.38;14.77;;;13.70;99.90;;;;;;5065252;28;20052;-82
2022/10/17 04:03:00;;;;;;;16.17;14.68;;;13.70;99.90;;;;;;5059674;28;20159;-83
2022/10/17 04:05:26;;;;;;;19.20;16.80;;;13.70;99.90;;;;;;5060099;28;20111;-82
2022/10/17 04:07:52;;;;;;;19.67;17.60;;;13.70;99.90;;;;;;5063367;28;20506;-83
2022/10/17 04:10:18;;;;;;;19.40;17.17;;;13.70;99.90;;;;;;5062751;28;20039;-82
2022/10/17 04:12:43;;;;;;;21.15;18.75;;;13.70;99.90;;;;;;5061492;28;20558;-84
2022/10/17 04:15:09;;;;;;;20.35;18.17;;;13.70;99.90;;;;;;5065486;28;20033;-83
2022/10/17 04:17:35;;;;;;;20.25;18.00;;;13.70;99.90;;;;;;5060864;28;20123;-83
2022/10/17 04:20:01;;;;;;;18.92;17.02;;;13.70;99.90;;;;;;5064354;28;20132;-83
2022/10/17 04:22:26;;;;;;;19.23;17.45;;;13.70;99.90;;;;;;5064621;28;20045;-82
2022/10/17 04:24:52;;;;;;;20.38;17.95;;;13.70;99.90;;;;;;5062932;28;20105;-83
2022/10/17 04:27:18;;;;;;;20.48;18.42;;;13.60;99.90;;;;;;5062475;28;20044;-84
2022/10/17 04:29:44;;;;;;;19.33;17.50;;;13.70;99.90;;;;;;5059594;28;20036;-83
2022/10/17 04:32:09;;;;;;;19.52;17.50;;;13.70;99.90;;;;;;5058995;28;20552;-83
2022/10/17 04:34:35;;;;;;;19.95;17.85;;;13.70;99.90;;;;;;5063099;28;20032;-83
2022/10/17 04:37:01;;;;;;;19.85;17.88;;;13.70;99.90;;;;;;5066416;28;20044;-83
2022/10/17 04:39:27;;;;;;;21.48;18.45;;;13.70;99.90;;;;;;5062919;28;20040;-82
2022/10/17 04:41:52;;;;;;;19.95;18.00;;;13.70;99.90;;;;;;5058973;28;20044;-83
2022/10/17 04:44:19;;;;;;;20.70;18.48;;;13.70;99.90;;;;;;5067373;28;20087;-83
2022/10/17 04:46:45;;;;;;;18.55;16.70;;;13.70;99.90;;;;;;5062016;28;20456;-82
2022/10/17 04:49:10;;;;;;;19.77;17.85;;;13.60;99.90;;;;;;5065734;28;20048;-84
2022/10/17 04:51:37;;;;;;;19.58;17.33;;;13.60;99.90;;;;;;5067625;28;20046;-82
2022/10/17 04:54:03;;;;;;;19.67;17.65;;;13.60;99.90;;;;;;5067275;28;20110;-83
2022/10/17 04:56:28;;;;;;;20.25;17.50;;;13.70;99.90;;;;;;5064775;28;20040;-83
2022/10/17 04:58:54;;;;;;;20.55;18.45;;;13.60;99.90;;;;;;5054815;28;20041;-83
2022/10/17 05:01:22;;;;;;;19.73;17.77;;;13.70;99.90;;;;;;5065175;28;20044;-83
2022/10/17 05:03:47;;;;;;;21.73;18.80;;;13.70;99.90;;;;;;5047818;28;20044;-83
2022/10/17 05:06:16;;;;;;;19.77;17.88;;;13.70;99.90;;;;;;5065909;28;20713;-82
2022/10/17 05:08:43;;;;;;;20.17;18.15;;;13.70;99.90;;;;;;5049431;28;20104;-82
2022/10/17 05:11:24;;;;;;;19.73;17.75;;;13.70;99.90;;;;;;5059678;28;20399;-82
2022/10/17 05:13:58;;;;;;;19.00;17.00;;;13.70;99.90;;;;;;5057488;28;20052;-81
2022/10/17 05:16:24;;;;;;;19.95;18.10;;;13.70;99.90;;;;;;5067647;28;20044;-81
2022/10/17 05:18:52;;;;;;;18.98;16.92;;;13.70;99.90;;;;;;5047679;28;20044;-81
2022/10/17 05:21:19;;;;;;;20.35;18.35;;;13.70;99.90;;;;;;5064920;28;20053;-81
2022/10/17 05:23:44;;;;;;;19.90;17.80;;;13.70;99.90;;;;;;5048505;28;20593;-81
2022/10/17 05:26:11;;;;;;;20.25;18.30;;;13.80;99.90;;;;;;5064874;28;20071;-81
2022/10/17 05:28:36;;;;;;;19.15;17.25;;;13.80;99.90;;;;;;5065536;28;20053;-81
2022/10/17 05:31:03;;;;;;;21.70;18.23;;;13.80;99.90;;;;;;5046480;28;20048;-81
2022/10/17 05:33:29;;;;;;;20.65;18.48;;;13.80;99.90;;;;;;5046714;28;20040;-81
2022/10/17 05:35:55;;;;;;;21.58;19.45;;;13.70;99.90;;;;;;5060794;28;20101;-81
2022/10/17 05:38:21;;;;;;;19.73;17.50;;;13.80;99.90;;;;;;5050653;28;20049;-81
2022/10/17 05:40:46;;;;;;;19.15;17.25;;;13.80;99.90;;;;;;5062191;28;20123;-80
2022/10/17 05:43:13;;;;;;;20.02;17.95;;;13.80;99.90;;;;;;5060776;28;20155;-80
2022/10/17 05:45:39;;;;;;;21.40;19.25;;;13.80;99.90;;;;;;5047540;28;20040;-80
2022/10/17 05:48:05;;;;;;;22.75;20.35;;;13.80;99.90;;;;;;5047018;28;20109;-80
2022/10/17 05:50:31;;;;;;;21.23;18.87;;;13.80;99.90;;;;;;5038579;28;20059;-80
2022/10/17 05:52:57;;;;;;;21.67;19.27;;;13.80;99.90;;;;;;5038916;28;20310;-81
2022/10/17 05:55:23;;;;;;;21.42;19.30;;;13.80;99.90;;;;;;5067125;28;20036;-81
2022/10/17 05:57:51;;;;;;;22.08;19.92;;;13.80;99.90;;;;;;5042373;28;20079;-80
2022/10/17 06:00:20;;;;;;;23.40;20.92;;;13.80;99.90;;;;;;5046497;28;20052;-81
2022/10/17 06:02:46;;;;;;;26.30;20.48;;;13.80;99.90;;;;;;5061438;28;20081;-82
2022/10/17 06:05:13;;;;;;;23.92;21.45;;;13.80;99.90;;;;;;5046810;28;20102;-81
2022/10/17 06:07:42;;;;;;;24.23;21.63;;;13.90;99.90;;;;;;5064251;28;20704;-81
2022/10/17 06:10:08;;;;;;;23.52;21.25;;;13.90;99.90;;;;;;5042489;28;20041;-81
2022/10/17 06:12:38;;;;;;;24.33;20.38;;;13.90;99.90;;;;;;5059190;28;20056;-81
2022/10/17 06:15:04;;;;;;;23.70;21.30;;;13.90;99.90;;;;;;5065251;28;20036;-82
2022/10/17 06:17:30;;;;;;;24.27;21.40;;;13.90;99.90;;;;;;5065813;28;20032;-81
2022/10/17 06:20:02;;;;;;;24.88;21.85;;;13.90;99.90;;;;;;5064166;28;20059;-81
2022/10/17 06:22:28;;;;;;;24.33;21.50;;;14.00;99.90;;;;;;5039518;28;20526;-81
2022/10/17 06:24:54;;;;;;;26.60;21.40;;;13.90;99.90;;;;;;5061661;28;20036;-81
2022/10/17 06:27:20;;;;;;;22.90;20.60;;;14.00;99.90;;;;;;5048303;28;20060;-81
2022/10/17 06:29:50;;;;;;;22.23;19.45;;;14.00;99.90;;;;;;5065001;28;20072;-81
2022/10/17 06:32:15;;;;;;;22.73;19.92;;;14.10;99.90;;;;;;5041389;28;20109;-82
2022/10/17 06:34:41;;;;;;;21.13;19.00;;;14.10;99.90;;;;;;5064965;28;20087;-81
2022/10/17 06:37:09;;;;;;;23.00;19.77;;;14.10;99.90;;;;;;5064036;28;20131;-82
2022/10/17 06:39:36;;;;;;;21.35;19.05;;;14.20;99.90;;;;;;5064893;28;20055;-82
2022/10/17 06:42:03;;;;;;;23.70;19.65;;;14.20;99.90;;;;;;5060064;28;20542;-82
2022/10/17 06:44:30;;;;;;;22.65;20.13;;;14.20;99.90;;;;;;5064218;28;20044;-80
2022/10/17 06:46:59;;;;;;;21.45;18.73;;;14.30;99.90;;;;;;5066035;28;20377;-81
2022/10/17 06:49:26;;;;;;;23.40;18.92;;;14.40;99.90;;;;;;5063763;28;20036;-82
2022/10/17 06:51:55;;;;;;;21.42;18.35;;;14.40;99.90;;;;;;5062505;28;20045;-81
2022/10/17 06:54:21;;;;;;;19.45;17.45;;;14.40;99.90;;;;;;5064678;28;20683;-81
2022/10/17 06:56:47;;;;;;;23.33;18.02;;;14.50;99.90;;;;;;5062062;28;20055;-81
2022/10/17 06:59:14;;;;;;;23.33;18.60;;;14.50;99.90;;;;;;5063935;28;20094;-80
2022/10/17 07:01:41;;;;;;;20.98;17.35;;;14.50;99.90;;;;;;5057244;28;20036;-81
2022/10/17 07:04:06;;;;;;;20.98;17.90;;;14.60;99.90;;;;;;5042367;28;20066;-83
2022/10/17 07:06:34;;;;;;;22.90;17.05;;;14.50;99.90;;;;;;5059079;28;20044;-78
2022/10/17 07:09:09;;;;;;;20.75;16.55;;;14.60;99.90;;;;;;5042854;28;20171;-78
2022/10/17 07:11:35;;;;;;;18.35;16.42;;;14.70;99.90;;;;;;5060863;28;20053;-79
2022/10/17 07:14:01;;;;;;;19.23;16.98;;;14.70;99.90;;;;;;5063902;28;20128;-79
2022/10/17 07:16:27;;;;;;;17.83;16.03;;;14.70;99.90;;;;;;5064195;28;20080;-78
2022/10/17 07:18:53;;;;;;;19.48;16.55;;;14.80;99.90;;;;;;5064025;28;20082;-79
2022/10/17 07:21:20;;;;;;;18.90;15.55;;;14.80;99.90;;;;;;5066972;28;20044;-80
2022/10/17 07:23:45;;;;;;;18.37;16.53;;;14.90;99.90;;;;;;5068295;28;20135;-78
2022/10/17 07:26:14;;;;;;;24.27;16.25;;;15.00;99.90;;;;;;5065884;28;20374;-78
2022/10/17 07:28:42;;;;;;;17.80;15.98;;;15.00;99.90;;;;;;5065646;28;20068;-81
2022/10/17 07:31:11;;;;;;;18.25;15.27;;;15.00;99.90;;;;;;5039790;28;20045;-79
2022/10/17 07:33:36;;;;;;;17.05;15.25;;;15.10;99.90;;;;;;5042443;28;20103;-80
2022/10/17 07:36:04;;;;;;;17.85;15.95;;;15.10;99.90;;;;;;5058738;28;20686;-79
2022/10/17 07:38:30;;;;;;;21.23;15.13;;;15.10;99.90;;;;;;5042423;28;20083;-82
2022/10/17 07:40:57;;;;;;;16.30;14.60;;;15.20;99.90;;;;;;5070709;28;20093;-79
2022/10/17 07:43:24;;;;;;;20.77;16.45;;;15.20;99.90;;;;;;5066674;28;20084;-78
2022/10/17 07:45:51;;;;;;;16.52;14.68;;;15.30;99.90;;;;;;5064512;28;20040;-79
2022/10/17 07:48:17;;;;;;;16.63;14.80;;;15.30;99.90;;;;;;5049399;28;20127;-81
2022/10/17 07:50:42;;;;;;;17.30;14.70;;;15.40;99.90;;;;;;5067283;28;20029;-78
2022/10/17 07:53:08;;;;;;;15.32;13.82;;;15.40;99.90;;;;;;5059439;28;20506;-80
2022/10/17 07:55:36;;;;;;;17.75;14.73;;;15.50;99.90;;;;;;5051964;28;20029;-82
2022/10/17 07:58:01;;;;;;;15.90;14.18;;;15.50;99.90;;;;;;5042074;28;20119;-80
2022/10/17 08:00:27;;;;;;;19.33;15.45;;;15.50;99.90;;;;;;5041357;28;20086;-82
2022/10/17 08:02:52;;;;;;;16.25;13.90;;;15.60;99.90;;;;;;5063073;28;20098;-78
2022/10/17 08:05:18;;;;;;;16.73;14.65;;;15.60;99.90;;;;;;5064988;28;20048;-78
2022/10/17 08:07:44;;;;;;;15.57;14.07;;;15.60;99.90;;;;;;5060865;28;20671;-81
2022/10/17 08:10:14;;;;;;;18.80;14.98;;;15.70;99.90;;;;;;5046603;28;20041;-82
2022/10/17 08:12:40;;;;;;;17.73;14.65;;;15.70;99.90;;;;;;5046392;28;20124;-82
2022/10/17 08:15:07;;;;;;;16.95;13.43;;;15.70;99.90;;;;;;5064661;28;20080;-83
2022/10/17 08:17:37;;;;;;;15.18;13.65;;;15.70;99.90;;;;;;5048806;28;20483;-82
2022/10/17 08:20:04;;;;;;;17.33;13.65;;;15.80;99.90;;;;;;5053086;28;20045;-82
2022/10/17 08:22:31;;;;;;;16.67;12.93;;;15.80;99.90;;;;;;5067731;28;20072;-82
2022/10/17 08:24:57;;;;;;;15.90;13.32;;;15.70;99.90;;;;;;5051594;28;20048;-78
2022/10/17 08:27:23;;;;;;;15.10;12.95;;;15.80;99.90;;;;;;5070155;28;20082;-83
2022/10/17 08:29:53;;;;;;;16.83;12.85;;;15.90;99.90;;;;;;5067215;28;20040;-83
2022/10/17 08:32:21;;;;;;;13.70;12.30;;;15.90;99.90;;;;;;5050332;28;20154;-83
2022/10/17 08:34:46;;;;;;;;;;;16.00;99.90;;;;;;5070085;28;20511;-79
2022/10/17 08:37:13;;;;;;;16.13;12.82;;;16.00;99.90;;;;;;5066574;28;19966;-81
2022/10/17 08:39:40;;;;;;;17.93;12.17;;;16.10;99.90;;;;;;5048522;28;20102;-83
2022/10/17 08:42:49;;;;;;;16.88;12.48;;;16.20;99.90;;;;;;5068443;28;20319;-84
2022/10/17 08:45:31;;;;;;;13.63;12.27;;;16.10;99.90;;;;;;5051706;28;20139;-84
2022/10/17 08:47:59;;;;;;;14.00;12.48;;;16.20;99.90;;;;;;5050915;28;20051;-81
2022/10/17 08:50:36;;;;;;;14.63;12.05;;;16.20;99.90;;;;;;5050945;28;20044;-83
2022/10/17 08:53:23;;;;;;;15.88;12.73;;;16.20;99.90;;;;;;5046564;28;20075;-84
2022/10/17 08:55:51;;;;;;;19.35;13.05;;;16.20;99.90;;;;;;5067772;28;20057;-83
2022/10/17 08:58:24;;;;;;;20.20;12.60;;;16.30;99.90;;;;;;5068236;28;20057;-83
2022/10/17 09:00:59;;;;;;;15.35;12.25;;;16.30;99.90;;;;;;5069507;28;20051;-84
2022/10/17 09:04:08;;;;;;;18.58;12.68;;;16.30;99.90;;;;;;5068829;28;20051;-83
2022/10/17 09:06:38;;;;;;;15.65;12.30;;;16.40;99.90;;;;;;5035646;28;20154;-83
2022/10/17 09:09:12;;;;;;;17.40;12.77;;;16.40;99.90;;;;;;5069490;28;20048;-83
2022/10/17 09:11:57;;;;;;;13.68;12.18;;;16.40;99.90;;;;;;5049097;28;20048;-83
2022/10/17 09:14:51;;;;;;;14.60;12.27;;;16.40;99.90;;;;;;5039382;28;20049;-82
2022/10/17 09:17:24;;;;;;;16.27;12.23;;;16.40;99.90;;;;;;5044125;28;20060;-81
2022/10/17 09:19:55;;;;;;;15.52;11.27;;;16.30;99.90;;;;;;5051971;28;20040;-77
2022/10/17 09:22:26;;;;;;;16.50;11.13;;;16.40;99.90;;;;;;5048369;28;20052;-74
2022/10/17 09:24:59;;;;;;;11.25;10.10;;;16.40;99.90;;;;;;5051044;28;20055;-83
2022/10/17 09:27:40;;;;;;;16.83;10.85;;;16.50;99.90;;;;;;5068489;28;20091;-82
2022/10/17 09:30:37;;;;;;;13.88;10.63;;;16.50;99.90;;;;;;5066908;28;20048;-84
2022/10/17 09:33:21;;;;;;;14.18;10.70;;;16.60;99.90;;;;;;5046686;28;20056;-84
2022/10/17 09:35:49;;;;;;;14.32;11.48;;;16.70;99.90;;;;;;5066284;28;20048;-84
2022/10/17 09:38:20;;;;;;;12.18;10.90;;;16.70;99.90;;;;;;5068197;28;20407;-86
2022/10/17 09:40:59;;;;;;;13.20;11.32;;;16.70;99.90;;;;;;5064656;28;20098;-84
2022/10/17 09:43:25;;;;;;;17.95;10.68;;;16.80;99.90;;;;;;5065604;28;20182;-85
2022/10/17 09:46:08;;;;;;;14.97;11.10;;;16.80;99.90;;;;;;5042105;28;20080;-85
2022/10/17 09:48:51;;;;;;;13.40;10.25;;;16.90;99.90;;;;;;5042166;28;20063;-82
2022/10/17 09:51:18;;;;;;;14.43;10.43;;;16.80;99.90;;;;;;5063480;28;20049;-80
2022/10/17 09:53:56;;;;;;;15.27;10.83;;;16.90;99.90;;;;;;5055264;28;20165;-81
2022/10/17 09:56:21;;;;;;;14.63;10.45;;;16.90;99.90;;;;;;5045957;28;20379;-78
2022/10/17 09:58:54;;;;;;;13.20;10.13;;;17.00;99.90;;;;;;5049728;28;20532;-80
2022/10/17 10:01:21;;;;;;;12.57;10.75;;;17.10;99.90;;;;;;5064459;28;20491;-81
2022/10/17 10:03:47;;;;;;;;;;;17.10;99.90;;;;;;5045605;28;20052;-78
2022/10/17 10:06:18;;;;;;;14.95;10.75;;;17.10;99.90;;;;;;5050158;28;19974;-74
2022/10/17 10:08:53;;;;;;;13.63;10.30;;;17.10;99.90;;;;;;5061457;28;20049;-77
2022/10/17 10:11:25;;;;;;;12.45;10.90;;;17.10;99.90;;;;;;5068353;28;20049;-81
2022/10/17 10:13:51;;;;;;;16.92;11.65;;;17.10;99.90;;;;;;5045493;28;20033;-88
2022/10/17 10:16:31;;;;;;;15.40;12.27;;;17.00;99.90;;;;;;5046470;28;20048;-78
2022/10/17 10:18:57;;;;;;;18.75;12.90;;;16.90;99.90;;;;;;5024899;28;20086;-79
2022/10/17 10:21:27;;;;;;;15.32;12.60;;;16.90;99.90;;;;;;5043956;28;20068;-80
2022/10/17 10:24:03;;;;;;;17.02;13.35;;;16.90;99.90;;;;;;5039243;28;20045;-79
2022/10/17 10:26:44;;;;;;;19.20;13.77;;;16.90;99.90;;;;;;5016988;28;20053;-81
2022/10/17 10:29:33;;;;;;;17.30;12.98;;;16.80;99.90;;;;;;5020821;28;20099;-80
2022/10/17 10:32:24;;;;;;;15.63;14.10;;;16.80;99.90;;;;;;5048117;28;20037;-83
2022/10/17 10:35:07;;;;;;;16.08;14.07;;;16.70;99.90;;;;;;5039690;28;20340;-78
2022/10/17 10:37:42;;;;;;;19.30;14.50;;;16.70;99.90;;;;;;5046981;28;20048;-76
2022/10/17 10:40:36;;;;;;;21.88;15.00;;;16.60;99.90;;;;;;5027710;28;20086;-80
2022/10/17 10:43:03;;;;;;;15.52;13.90;;;16.60;99.90;;;;;;5045791;28;20124;-77
2022/10/17 10:45:35;;;;;;;15.23;13.73;;;16.60;99.90;;;;;;5021966;28;20073;-77
2022/10/17 10:48:10;;;;;;;20.92;15.20;;;16.60;99.90;;;;;;5029544;28;20560;-77
2022/10/17 10:50:49;;;;;;;17.33;15.48;;;16.50;99.90;;;;;;5044557;28;20037;-79
2022/10/17 10:53:56;;;;;;;17.40;14.98;;;16.50;99.90;;;;;;5047809;28;20037;-79
2022/10/17 10:56:28;;;;;;;22.05;15.98;;;16.50;99.90;;;;;;5040275;28;20469;-80
2022/10/17 10:58:59;;;;;;;18.85;15.73;;;16.40;99.90;;;;;;5044098;28;20049;-78
2022/10/17 11:01:43;;;;;;;21.13;16.60;;;16.40;99.90;;;;;;5028962;28;20053;-78
2022/10/17 11:04:18;;;;;;;18.45;16.27;;;16.40;99.90;;;;;;5042211;28;20041;-77
2022/10/17 11:06:44;;;;;;;22.67;16.45;;;16.40;99.90;;;;;;5042501;28;20050;-76
2022/10/17 11:09:38;;;;;;;20.00;16.17;;;16.40;99.90;;;;;;5043261;28;20037;-77
2022/10/17 11:12:20;;;;;;;19.35;16.55;;;16.40;99.90;;;;;;5026602;28;20155;-79
2022/10/17 11:14:54;;;;;;;21.33;16.50;;;16.40;99.90;;;;;;5046240;28;20132;-80
2022/10/17 11:17:59;;;;;;;19.65;16.85;;;16.40;99.90;;;;;;5041174;28;20037;-77
2022/10/17 11:20:47;;;;;;;19.83;16.88;;;16.40;99.90;;;;;;4982734;28;20042;-77
2022/10/17 11:23:22;;;;;;;19.15;16.27;;;16.40;99.90;;;;;;5044956;28;20091;-77
2022/10/17 11:25:50;;;;;;;17.65;15.45;;;16.40;99.90;;;;;;5043462;28;20029;-78
2022/10/17 11:28:21;;;;;;;19.90;15.52;;;16.50;99.90;;;;;;5025155;28;20049;-75
2022/10/17 11:30:50;;;;;;;17.92;15.02;;;16.50;99.90;;;;;;5040487;28;20043;-79
2022/10/17 11:33:42;;;;;;;19.33;15.38;;;16.50;99.90;;;;;;5023943;28;20045;-81
2022/10/17 11:36:09;;;;;;;16.48;14.30;;;16.50;99.90;;;;;;5022513;28;20056;-79
2022/10/17 11:38:55;;;;;;;16.17;14.02;;;16.50;99.90;;;;;;5043908;28;20424;-80
2022/10/17 11:41:31;;;;;;;16.20;14.40;;;16.50;99.90;;;;;;5027772;28;20037;-81
2022/10/17 11:44:00;;;;;;;17.35;14.48;;;16.50;99.90;;;;;;5044884;28;20756;-81
2022/10/17 11:46:27;;;;;;;14.70;13.20;;;16.50;99.90;;;;;;5041089;28;20641;-76
2022/10/17 11:49:11;;;;;;;13.88;12.15;;;16.50;99.90;;;;;;5043163;28;20063;-77
2022/10/17 11:52:07;;;;;;;15.48;11.93;;;16.50;99.90;;;;;;5026831;28;20107;-75
2022/10/17 11:54:49;;;;;;;15.37;11.73;;;16.60;99.90;;;;;;5021143;28;20138;-77
2022/10/17 11:57:36;;;;;;;13.82;11.20;;;16.60;99.90;;;;;;5051914;28;20052;-77
2022/10/17 12:00:29;;;;;;;13.63;11.48;;;16.60;99.90;;;;;;5024143;28;20400;-76
2022/10/17 12:03:01;;;;;;;13.18;11.82;;;16.60;99.90;;;;;;5039159;28;20803;-82
2022/10/17 12:05:32;;;;;;;12.77;11.40;;;16.60;99.90;;;;;;5029965;28;20087;-78
2022/10/17 12:08:23;;;;;;;13.15;11.40;;;16.60;99.90;;;;;;5027267;28;20052;-78
2022/10/17 12:10:58;;;;;;;13.13;11.82;;;16.60;99.90;;;;;;5049047;28;20116;-81
2022/10/17 12:13:27;;;;;;;12.90;11.50;;;16.60;99.90;;;;;;5060312;28;20040;-82
2022/10/17 12:15:57;;;;;;;13.13;11.45;;;16.60;99.90;;;;;;5066094;28;20406;-80
2022/10/17 12:18:26;;;;;;;13.30;10.57;;;16.60;99.90;;;;;;5048557;28;20040;-80
2022/10/17 12:20:59;;;;;;;12.05;10.48;;;16.60;99.90;;;;;;5063314;28;20056;-79
2022/10/17 12:23:29;;;;;;;14.85;11.30;;;16.60;99.90;;;;;;5064572;28;20105;-79
2022/10/17 12:26:04;;;;;;;11.68;10.48;;;16.60;99.90;;;;;;5069443;28;20054;-79
2022/10/17 12:28:36;;;;;;;12.88;10.15;;;16.60;99.90;;;;;;5070479;28;20052;-80
2022/10/17 12:31:24;;;;;;;11.32;10.02;;;16.60;99.90;;;;;;5071327;28;20102;-79
2022/10/17 12:34:00;;;;;;;11.07;9.98;;;16.60;99.90;;;;;;5061838;28;20053;-79
2022/10/17 12:36:25;;;;;;;11.05;9.95;;;16.60;99.90;;;;;;5052297;28;20161;-79
2022/10/17 12:39:00;;;;;;;12.23;9.82;;;16.50;99.90;;;;;;5051108;28;20484;-78
2022/10/17 12:41:38;;;;;;;11.55;10.35;;;16.60;99.90;;;;;;5071411;28;20052;-79
2022/10/17 12:44:20;;;;;;;12.52;9.95;;;16.60;99.90;;;;;;5066966;28;20059;-79
2022/10/17 12:47:17;;;;;;;12.00;10.43;;;16.60;99.90;;;;;;5052162;28;20045;-80
2022/10/17 12:49:48;;;;;;;12.77;10.23;;;16.60;99.90;;;;;;5053147;28;20102;-79
2022/10/17 12:52:22;;;;;;;13.13;10.95;;;16.60;99.90;;;;;;5050815;28;20353;-79
2022/10/17 12:55:11;;;;;;;11.90;10.63;;;16.70;99.90;;;;;;5071389;28;20055;-79